Time;durP1;ratioP1;P1;durP2;ratioP2;P2;SDS_P1;SDS_P2;PMS_P1;PMS_P2;Temp;Humidity;BMP_temperature;BMP_pressure;BME280_temperature;BME280_humidity;BME280_pressure;Samples;Min_cycle;Max_cycle;Signal;HPM_P1;HPM_P2
2021/08/25 00:00:16;;;;;;;0.40;0.20;;;14.90;1.00;;;;;;5034244;28;20256;-65
2021/08/25 00:02:41;;;;;;;0.40;0.20;;;15.00;1.00;;;;;;5037454;28;20212;-65
2021/08/25 00:05:08;;;;;;;0.40;0.20;;;14.90;1.00;;;;;;5038144;28;20600;-65
2021/08/25 00:07:34;;;;;;;0.40;0.20;;;14.90;1.00;;;;;;5037589;28;20205;-65
2021/08/25 00:10:00;;;;;;;0.40;0.20;;;14.90;1.00;;;;;;5037338;28;20288;-65
2021/08/25 00:12:25;;;;;;;0.40;0.20;;;14.90;1.00;;;;;;5037273;28;20173;-65
2021/08/25 00:14:51;;;;;;;0.40;0.20;;;14.80;1.00;;;;;;5037255;28;20189;-65
2021/08/25 00:17:18;;;;;;;0.40;0.20;;;14.90;1.00;;;;;;5037391;28;20243;-65
2021/08/25 00:19:45;;;;;;;0.40;0.20;;;14.90;1.00;;;;;;5037043;28;20207;-65
2021/08/25 00:22:11;;;;;;;0.40;0.20;;;14.90;1.00;;;;;;5037097;28;20186;-65
2021/08/25 00:24:37;;;;;;;0.40;0.20;;;14.90;1.00;;;;;;5037071;28;20173;-65
2021/08/25 00:27:03;;;;;;;0.40;0.20;;;14.80;1.00;;;;;;5036919;28;20213;-65
2021/08/25 00:29:29;;;;;;;0.40;0.20;;;14.90;1.00;;;;;;5035649;28;20546;-65
2021/08/25 00:31:54;;;;;;;0.40;0.20;;;14.90;1.00;;;;;;5037528;28;20611;-65
2021/08/25 00:34:20;;;;;;;0.40;0.20;;;14.90;1.00;;;;;;5037599;28;20178;-65
2021/08/25 00:36:45;;;;;;;0.40;0.20;;;14.80;1.00;;;;;;5036888;28;20606;-65
2021/08/25 00:39:11;;;;;;;0.40;0.20;;;14.70;1.00;;;;;;5036820;28;20327;-65
2021/08/25 00:41:36;;;;;;;0.40;0.20;;;14.60;1.00;;;;;;5036557;28;20258;-65
2021/08/25 00:44:02;;;;;;;0.40;0.10;;;14.50;1.00;;;;;;5036705;28;20185;-65
2021/08/25 00:46:30;;;;;;;0.40;0.20;;;14.50;1.00;;;;;;5036593;28;20193;-65
2021/08/25 00:48:57;;;;;;;0.40;0.20;;;14.50;1.00;;;;;;5036388;28;20181;-65
2021/08/25 00:51:23;;;;;;;0.40;0.20;;;14.50;1.00;;;;;;5036418;28;20209;-65
2021/08/25 00:53:49;;;;;;;0.40;0.20;;;14.50;1.00;;;;;;5036660;28;20200;-65
2021/08/25 00:56:14;;;;;;;0.40;0.20;;;14.60;1.00;;;;;;5036542;28;20405;-65
2021/08/25 00:58:42;;;;;;;0.40;0.20;;;14.60;1.00;;;;;;5036316;28;20173;-65
2021/08/25 01:01:15;;;;;;;0.40;0.20;;;14.60;1.00;;;;;;5036409;28;20181;-65
2021/08/25 01:03:49;;;;;;;0.40;0.20;;;14.40;1.00;;;;;;5036190;28;20252;-65
2021/08/25 01:06:21;;;;;;;0.40;0.20;;;14.40;1.00;;;;;;5035275;28;20246;-65
2021/08/25 01:08:47;;;;;;;0.40;0.20;;;14.50;1.00;;;;;;5036038;28;20253;-65
2021/08/25 01:11:13;;;;;;;0.40;0.20;;;14.60;1.00;;;;;;5035999;28;20292;-65
2021/08/25 01:13:39;;;;;;;0.40;0.20;;;14.50;1.00;;;;;;5035913;28;20185;-65
2021/08/25 01:16:06;;;;;;;0.40;0.20;;;14.50;1.00;;;;;;5035135;28;20424;-65
2021/08/25 01:18:32;;;;;;;0.40;0.17;;;14.40;49.20;;;;;;5035677;28;20189;-65
2021/08/25 01:21:00;;;;;;;0.40;0.20;;;14.30;99.90;;;;;;5036480;28;20185;-65
2021/08/25 01:23:26;;;;;;;0.40;0.20;;;14.40;99.90;;;;;;5036017;28;20228;-65
2021/08/25 01:26:14;;;;;;;0.40;0.20;;;14.50;99.90;;;;;;5035036;28;20193;-65
2021/08/25 01:28:46;;;;;;;0.40;0.20;;;14.40;99.90;;;;;;5035744;28;20181;-65
2021/08/25 01:31:12;;;;;;;0.40;0.10;;;14.40;99.90;;;;;;5035845;28;20201;-65
2021/08/25 01:33:38;;;;;;;0.40;0.20;;;14.50;99.90;;;;;;5036190;28;20479;-65
2021/08/25 01:36:03;;;;;;;0.40;0.20;;;14.50;99.90;;;;;;5036059;28;20212;-65
2021/08/25 01:38:42;;;;;;;0.40;0.20;;;14.50;99.90;;;;;;5035505;28;20189;-65
2021/08/25 01:41:09;;;;;;;0.40;0.10;;;14.40;86.60;;;;;;5035662;28;20541;-65
2021/08/25 01:43:35;;;;;;;0.40;0.20;;;14.50;99.80;;;;;;5035642;28;20200;-65
2021/08/25 01:46:01;;;;;;;0.40;0.20;;;14.50;41.20;;;;;;5035923;28;20185;-65
2021/08/25 01:48:28;;;;;;;0.40;0.10;;;14.50;32.80;;;;;;5035256;28;20510;-65
2021/08/25 01:50:53;;;;;;;0.40;0.20;;;14.50;14.00;;;;;;5035376;28;20750;-65
2021/08/25 01:53:19;;;;;;;1.43;1.43;;;14.40;23.10;;;;;;5035392;28;20264;-65
2021/08/25 01:55:44;;;;;;;0.40;0.20;;;14.50;34.20;;;;;;5035272;28;20190;-65
2021/08/25 01:58:10;;;;;;;0.40;0.20;;;14.40;10.50;;;;;;5035104;28;20189;-65
2021/08/25 02:00:36;;;;;;;0.40;0.20;;;14.40;45.00;;;;;;5035193;28;20209;-65
2021/08/25 02:03:02;;;;;;;0.40;0.20;;;14.50;25.50;;;;;;5035218;28;20523;-65
2021/08/25 02:05:27;;;;;;;0.40;0.20;;;14.40;14.00;;;;;;5035066;28;20192;-65
2021/08/25 02:07:53;;;;;;;0.40;0.20;;;14.30;18.70;;;;;;5035021;28;20352;-65
2021/08/25 02:10:18;;;;;;;0.40;0.20;;;14.30;43.60;;;;;;5035010;28;20312;-64
2021/08/25 02:12:44;;;;;;;0.40;0.20;;;14.30;61.80;;;;;;5034022;28;20235;-64
2021/08/25 02:15:10;;;;;;;5.27;5.10;;;14.30;82.40;;;;;;5034972;28;20181;-64
2021/08/25 02:17:36;;;;;;;0.40;0.20;;;14.30;99.90;;;;;;5034753;28;20566;-64
2021/08/25 02:20:04;;;;;;;0.40;0.20;;;14.30;99.90;;;;;;5034893;28;20256;-64
2021/08/25 02:22:29;;;;;;;0.40;0.17;;;14.30;99.90;;;;;;5034870;28;20591;-64
2021/08/25 02:24:54;;;;;;;0.40;0.20;;;14.30;99.90;;;;;;5034145;28;20196;-64
2021/08/25 02:27:20;;;;;;;0.30;0.20;;;14.30;99.90;;;;;;5034642;28;20189;-64
2021/08/25 02:29:55;;;;;;;0.30;0.10;;;14.40;99.90;;;;;;5034494;28;20232;-64
2021/08/25 02:32:21;;;;;;;0.40;0.20;;;14.30;99.90;;;;;;5034607;28;20522;-64
2021/08/25 02:34:47;;;;;;;0.30;0.20;;;14.40;99.90;;;;;;5034591;28;20206;-65
2021/08/25 02:37:12;;;;;;;0.40;0.20;;;14.40;99.90;;;;;;5034484;28;20622;-65
2021/08/25 02:39:38;;;;;;;0.30;0.20;;;14.50;99.90;;;;;;5033422;28;20174;-65
2021/08/25 02:42:04;;;;;;;0.40;0.20;;;14.40;99.90;;;;;;5034600;28;20178;-65
2021/08/25 02:44:29;;;;;;;0.40;0.20;;;14.50;99.90;;;;;;5034373;28;20485;-65
2021/08/25 02:46:55;;;;;;;1.60;1.50;;;14.50;99.90;;;;;;5034329;28;20180;-65
2021/08/25 02:49:20;;;;;;;0.40;0.20;;;14.40;99.90;;;;;;5034096;28;20193;-65
2021/08/25 02:51:46;;;;;;;0.40;0.20;;;14.60;99.90;;;;;;5034388;28;20174;-65
2021/08/25 02:54:11;;;;;;;0.40;0.20;;;14.50;99.90;;;;;;5034203;28;20641;-65
2021/08/25 02:56:37;;;;;;;0.40;0.20;;;14.40;99.90;;;;;;5033151;28;20181;-65
2021/08/25 02:59:02;;;;;;;0.40;0.20;;;14.40;99.90;;;;;;5034045;28;20177;-65
2021/08/25 03:01:28;;;;;;;0.40;0.20;;;14.60;99.90;;;;;;5034445;28;20632;-65
2021/08/25 03:03:53;;;;;;;0.40;0.20;;;14.50;99.90;;;;;;5033748;28;20634;-65
2021/08/25 03:06:19;;;;;;;0.30;0.10;;;14.30;99.90;;;;;;5033838;28;20208;-65
2021/08/25 03:08:45;;;;;;;0.30;0.20;;;14.20;99.90;;;;;;5033911;28;20177;-66
2021/08/25 03:11:10;;;;;;;0.30;0.20;;;14.20;99.90;;;;;;5033880;28;20306;-65
2021/08/25 03:13:37;;;;;;;0.40;0.20;;;14.20;99.90;;;;;;5032960;28;20183;-65
2021/08/25 03:16:02;;;;;;;0.40;0.20;;;14.10;99.90;;;;;;5033952;28;20636;-65
2021/08/25 03:18:28;;;;;;;15.40;14.00;;;14.10;99.90;;;;;;5033681;28;20174;-65
2021/08/25 03:20:53;;;;;;;0.60;0.60;;;14.10;99.90;;;;;;5033780;28;20611;-65
2021/08/25 03:23:19;;;;;;;0.40;0.20;;;14.20;99.90;;;;;;5032838;28;20189;-63
2021/08/25 03:25:44;;;;;;;0.40;0.20;;;14.30;99.90;;;;;;5033831;28;20186;-64
2021/08/25 03:28:10;;;;;;;0.30;0.13;;;14.40;99.90;;;;;;5033589;28;20185;-64
2021/08/25 03:30:35;;;;;;;2.57;0.97;;;14.50;99.90;;;;;;5033990;28;20788;-64
2021/08/25 03:33:05;;;;;;;0.30;0.10;;;14.70;99.90;;;;;;5033732;28;20645;-64
2021/08/25 03:35:32;;;;;;;0.40;0.20;;;14.80;99.90;;;;;;5033758;28;20204;-64
2021/08/25 03:37:57;;;;;;;0.35;0.20;;;14.90;99.90;;;;;;5033613;28;20181;-64
2021/08/25 03:40:23;;;;;;;0.30;0.20;;;15.00;99.90;;;;;;5033500;28;20256;-64
2021/08/25 03:42:48;;;;;;;1.90;0.53;;;15.00;99.90;;;;;;5033556;28;20196;-64
2021/08/25 03:45:14;;;;;;;0.40;0.20;;;14.90;99.90;;;;;;5033606;28;20181;-64
2021/08/25 03:47:40;;;;;;;0.40;0.20;;;14.90;99.90;;;;;;5033378;28;20181;-65
2021/08/25 03:50:06;;;;;;;0.40;0.23;;;15.00;99.90;;;;;;5033394;28;20295;-65
2021/08/25 03:52:32;;;;;;;0.30;0.10;;;14.80;99.90;;;;;;5033385;28;20272;-64
2021/08/25 03:54:58;;;;;;;1.83;1.40;;;14.60;99.90;;;;;;5033639;28;20251;-64
2021/08/25 03:57:23;;;;;;;0.60;0.53;;;14.50;99.90;;;;;;5033522;28;20613;-66
2021/08/25 03:59:49;;;;;;;1.90;1.30;;;14.60;99.90;;;;;;5033270;28;20549;-65
2021/08/25 04:02:15;;;;;;;0.40;0.20;;;14.60;99.90;;;;;;5033287;28;20247;-65
2021/08/25 04:04:40;;;;;;;0.50;0.50;;;14.60;99.90;;;;;;5032314;28;20561;-65
2021/08/25 04:07:06;;;;;;;0.50;0.30;;;14.80;99.90;;;;;;5033162;28;20447;-65
2021/08/25 04:09:31;;;;;;;0.60;0.50;;;14.70;99.90;;;;;;5033268;28;20242;-65
2021/08/25 04:11:57;;;;;;;0.57;0.57;;;14.70;99.90;;;;;;5033525;28;20196;-64
2021/08/25 04:14:22;;;;;;;0.60;0.60;;;14.70;99.90;;;;;;5033302;28;20630;-64
2021/08/25 04:16:48;;;;;;;0.40;0.20;;;14.70;99.90;;;;;;5033193;28;20181;-64
2021/08/25 04:19:13;;;;;;;0.40;0.20;;;14.70;99.90;;;;;;5032383;28;20185;-64
2021/08/25 04:21:39;;;;;;;0.70;0.70;;;14.60;99.90;;;;;;5033210;28;20170;-64
2021/08/25 04:24:04;;;;;;;0.40;0.20;;;14.40;99.90;;;;;;5033479;28;20209;-64
2021/08/25 04:26:30;;;;;;;0.40;0.20;;;14.40;99.90;;;;;;5032255;28;20200;-64
2021/08/25 04:28:56;;;;;;;2.23;2.13;;;14.40;99.90;;;;;;5033049;28;20489;-64
2021/08/25 04:31:21;;;;;;;3.90;0.63;;;14.50;99.90;;;;;;5032964;28;20219;-64
2021/08/25 04:33:47;;;;;;;1.53;1.43;;;14.40;99.90;;;;;;5033210;28;20558;-64
2021/08/25 04:36:12;;;;;;;0.40;0.20;;;14.30;99.90;;;;;;5033214;28;20269;-64
2021/08/25 04:38:38;;;;;;;1.47;1.20;;;14.30;99.90;;;;;;5032903;28;20236;-62
2021/08/25 04:41:03;;;;;;;1.70;1.60;;;14.30;99.90;;;;;;5033265;28;20210;-62
2021/08/25 04:43:29;;;;;;;2.60;1.67;;;14.30;99.90;;;;;;5033095;28;20220;-62
2021/08/25 04:45:55;;;;;;;1.80;1.70;;;14.30;99.90;;;;;;5033013;28;20205;-62
2021/08/25 04:48:21;;;;;;;0.73;0.68;;;14.30;99.90;;;;;;5037779;28;20182;-65
2021/08/25 04:50:47;;;;;;;0.93;0.75;;;14.40;99.90;;;;;;5046079;28;20240;-67
2021/08/25 04:53:13;;;;;;;0.93;0.67;;;14.50;99.90;;;;;;5045509;28;20630;-67
2021/08/25 04:55:38;;;;;;;1.80;1.27;;;14.60;99.90;;;;;;5046404;28;20204;-66
2021/08/25 04:58:05;;;;;;;2.83;1.40;;;14.60;99.90;;;;;;5043124;28;20580;-66
2021/08/25 05:00:30;;;;;;;1.00;1.00;;;14.60;99.90;;;;;;5036339;28;20174;-65
2021/08/25 05:02:56;;;;;;;0.93;0.83;;;14.60;99.90;;;;;;5035300;28;20181;-66
2021/08/25 05:05:25;;;;;;;0.40;0.20;;;14.60;99.90;;;;;;5035201;28;20186;-65
2021/08/25 05:07:51;;;;;;;0.93;0.70;;;14.60;99.90;;;;;;5036186;28;20244;-66
2021/08/25 05:10:17;;;;;;;0.60;0.47;;;14.70;99.90;;;;;;5036135;28;20209;-66
2021/08/25 05:12:46;;;;;;;0.63;0.60;;;14.60;99.90;;;;;;5035242;28;20190;-66
2021/08/25 05:15:12;;;;;;;1.63;1.52;;;14.70;99.90;;;;;;5035827;28;20463;-65
2021/08/25 05:17:38;;;;;;;1.08;1.05;;;14.90;99.90;;;;;;5036023;28;20173;-65
2021/08/25 05:20:06;;;;;;;2.87;2.67;;;15.30;99.90;;;;;;5035817;28;20197;-65
2021/08/25 05:22:32;;;;;;;0.93;0.77;;;16.20;99.90;;;;;;5036011;28;20921;-65
2021/08/25 05:24:58;;;;;;;0.77;0.77;;;17.20;99.90;;;;;;5043319;28;20873;-67
2021/08/25 05:27:24;;;;;;;2.73;2.53;;;18.00;57.80;;;;;;5043343;28;20486;-67
2021/08/25 05:29:50;;;;;;;0.40;0.20;;;18.40;1.00;;;;;;5044326;28;20292;-67
2021/08/25 05:32:15;;;;;;;1.33;1.23;;;18.30;1.00;;;;;;5040555;28;20440;-67
2021/08/25 05:34:41;;;;;;;0.60;0.57;;;19.10;1.00;;;;;;5042096;28;20174;-67
2021/08/25 05:37:06;;;;;;;0.80;0.50;;;19.40;99.90;;;;;;5041284;28;20193;-67
2021/08/25 05:39:32;;;;;;;1.80;1.03;;;19.60;99.90;;;;;;5039373;28;20189;-68
2021/08/25 05:41:57;;;;;;;0.50;0.30;;;19.80;1.00;;;;;;5040824;28;20178;-67
2021/08/25 05:44:23;;;;;;;1.57;1.30;;;18.90;1.00;;;;;;5043187;28;20260;-68
2021/08/25 05:46:49;;;;;;;1.57;1.47;;;19.10;99.90;;;;;;5041529;28;20181;-67
2021/08/25 05:49:14;;;;;;;2.87;1.53;;;19.60;99.90;;;;;;5040374;28;20181;-70
2021/08/25 05:51:43;;;;;;;2.03;1.80;;;20.60;26.90;;;;;;5039180;28;20220;-69
2021/08/25 05:54:13;;;;;;;2.40;0.83;;;20.90;1.00;;;;;;5040068;28;20181;-69
2021/08/25 05:56:40;;;;;;;0.50;0.20;;;20.40;25.40;;;;;;5040479;28;20432;-68
2021/08/25 05:59:05;;;;;;;0.50;0.20;;;19.80;60.60;;;;;;5042107;28;20439;-67
2021/08/25 06:01:31;;;;;;;0.50;0.47;;;18.50;1.00;;;;;;5042027;28;20431;-67
2021/08/25 06:03:56;;;;;;;0.40;0.20;;;17.80;1.00;;;;;;5039294;28;20181;-68
2021/08/25 06:06:28;;;;;;;1.33;1.23;;;17.60;40.20;;;;;;5037648;28;20292;-67
2021/08/25 06:08:53;;;;;;;0.50;0.20;;;17.70;27.10;;;;;;5038608;28;20193;-68
2021/08/25 06:11:19;;;;;;;0.60;0.40;;;18.10;1.00;;;;;;5036260;28;20467;-66
2021/08/25 06:13:44;;;;;;;0.40;0.10;;;19.30;1.00;;;;;;5034856;28;20619;-64
2021/08/25 06:16:11;;;;;;;0.40;0.20;;;19.90;1.00;;;;;;5035311;28;20201;-65
2021/08/25 06:18:36;;;;;;;3.77;1.50;;;20.30;1.00;;;;;;5034712;28;20188;-65
2021/08/25 06:21:02;;;;;;;5.60;3.70;;;21.10;1.00;;;;;;5035049;28;20429;-65
2021/08/25 06:23:27;;;;;;;0.60;0.43;;;21.60;1.00;;;;;;5034713;28;20539;-65
2021/08/25 06:25:53;;;;;;;1.37;0.50;;;22.30;40.20;;;;;;5033492;28;20201;-64
2021/08/25 06:28:18;;;;;;;0.73;0.73;;;22.60;99.90;;;;;;5040274;28;20614;-67
2021/08/25 06:30:44;;;;;;;1.57;0.60;;;22.80;1.00;;;;;;5045810;28;20200;-67
2021/08/25 06:33:10;;;;;;;0.40;0.20;;;22.50;99.90;;;;;;5041496;28;20271;-67
2021/08/25 06:35:35;;;;;;;2.83;2.63;;;22.60;99.90;;;;;;5049466;28;20191;-68
2021/08/25 06:38:01;;;;;;;0.40;0.20;;;22.20;99.90;;;;;;5039214;28;20188;-68
2021/08/25 06:40:26;;;;;;;0.60;0.40;;;22.20;8.00;;;;;;5037283;28;20577;-69
2021/08/25 06:42:52;;;;;;;0.50;0.30;;;22.20;1.00;;;;;;5041261;28;20536;-68
2021/08/25 06:45:18;;;;;;;1.90;1.80;;;21.70;1.00;;;;;;5059411;28;20237;-69
2021/08/25 06:47:44;;;;;;;0.97;0.87;;;21.70;7.70;;;;;;5057410;28;20251;-68
2021/08/25 06:50:10;;;;;;;0.50;0.30;;;21.60;65.20;;;;;;5045787;28;20460;-67
2021/08/25 06:52:35;;;;;;;0.80;0.60;;;21.00;1.00;;;;;;5040971;28;20439;-67
2021/08/25 06:55:01;;;;;;;1.87;1.03;;;21.30;99.90;;;;;;5039046;28;20420;-67
2021/08/25 06:57:26;;;;;;;0.50;0.30;;;21.80;1.00;;;;;;5037746;28;20213;-68
2021/08/25 06:59:52;;;;;;;0.50;0.23;;;22.10;99.90;;;;;;5039738;28;20189;-68
2021/08/25 07:02:17;;;;;;;1.00;0.67;;;21.60;1.00;;;;;;5055972;28;20241;-66
2021/08/25 07:04:46;;;;;;;2.10;1.13;;;21.50;57.60;;;;;;5053798;28;20606;-67
2021/08/25 07:07:15;;;;;;;0.93;0.77;;;20.50;1.00;;;;;;5035302;28;20193;-61
2021/08/25 07:09:41;;;;;;;3.73;1.27;;;20.40;1.00;;;;;;5034084;28;20889;-62
2021/08/25 07:12:07;;;;;;;0.40;0.20;;;20.50;1.00;;;;;;5033527;28;20438;-62
2021/08/25 07:14:33;;;;;;;0.50;0.30;;;19.70;99.90;;;;;;5033668;28;20428;-62
2021/08/25 07:16:58;;;;;;;0.83;0.73;;;19.40;1.00;;;;;;5033656;28;20467;-62
2021/08/25 07:19:24;;;;;;;0.40;0.20;;;19.20;1.00;;;;;;5033629;28;20263;-61
2021/08/25 07:21:49;;;;;;;0.40;0.20;;;18.60;1.00;;;;;;5049558;28;20181;-62
2021/08/25 07:24:15;;;;;;;0.40;0.20;;;18.70;1.00;;;;;;5033780;28;20185;-64
2021/08/25 07:26:41;;;;;;;0.40;0.20;;;18.80;1.00;;;;;;5033978;28;20622;-65
2021/08/25 07:29:07;;;;;;;0.80;0.70;;;19.40;1.00;;;;;;5033514;28;20186;-65
2021/08/25 07:31:32;;;;;;;0.73;0.73;;;19.80;99.90;;;;;;5033714;28;20638;-66
2021/08/25 07:33:58;;;;;;;0.57;0.37;;;19.70;99.90;;;;;;5034910;28;20885;-65
2021/08/25 07:36:24;;;;;;;0.50;0.30;;;19.10;1.00;;;;;;5053456;28;20221;-64
2021/08/25 07:38:50;;;;;;;5.73;1.80;;;18.70;1.00;;;;;;5034651;28;20192;-64
2021/08/25 07:41:16;;;;;;;2.00;1.40;;;18.70;1.00;;;;;;5033198;28;20185;-66
2021/08/25 07:43:41;;;;;;;0.40;0.20;;;18.40;1.00;;;;;;5033285;28;20428;-65
2021/08/25 07:46:07;;;;;;;0.40;0.20;;;18.40;1.00;;;;;;5033121;28;20519;-66
2021/08/25 07:48:33;;;;;;;0.40;0.20;;;18.70;1.00;;;;;;5031958;28;20185;-67
2021/08/25 07:50:58;;;;;;;0.60;0.43;;;18.70;1.00;;;;;;5032155;28;20209;-66
2021/08/25 07:53:24;;;;;;;0.50;0.33;;;18.70;1.00;;;;;;5033538;28;20267;-65
2021/08/25 07:55:49;;;;;;;0.60;0.50;;;18.80;1.00;;;;;;5033316;28;20213;-65
2021/08/25 07:58:15;;;;;;;0.50;0.30;;;18.90;99.90;;;;;;5033082;28;20260;-65
2021/08/25 08:00:41;;;;;;;0.50;0.30;;;18.80;1.00;;;;;;5032236;28;20185;-61
2021/08/25 08:03:07;;;;;;;0.50;0.30;;;18.60;1.00;;;;;;5033564;28;20224;-63
2021/08/25 08:05:33;;;;;;;0.47;0.23;;;18.70;1.00;;;;;;5033592;28;20754;-65
2021/08/25 08:07:59;;;;;;;0.50;0.20;;;19.00;99.90;;;;;;5034901;28;20486;-63
2021/08/25 08:10:24;;;;;;;0.43;0.20;;;19.10;99.90;;;;;;5033254;28;20208;-64
2021/08/25 08:12:50;;;;;;;0.67;0.20;;;19.50;1.00;;;;;;5033114;28;20508;-64
2021/08/25 08:15:16;;;;;;;1.00;0.73;;;19.60;1.00;;;;;;5032911;28;20181;-63
2021/08/25 08:17:46;;;;;;;1.23;1.23;;;19.30;1.00;;;;;;5032850;28;20427;-63
2021/08/25 08:20:16;;;;;;;4.63;1.30;;;18.90;99.90;;;;;;5031597;28;20288;-63
2021/08/25 08:22:42;;;;;;;0.50;0.40;;;19.00;99.90;;;;;;5035063;28;20453;-63
2021/08/25 08:25:08;;;;;;;0.40;0.20;;;19.10;99.90;;;;;;5037393;28;20447;-65
2021/08/25 08:27:33;;;;;;;0.60;0.50;;;19.10;99.90;;;;;;5036931;28;20428;-63
2021/08/25 08:30:00;;;;;;;0.40;0.20;;;19.20;99.90;;;;;;5037023;28;20529;-64
2021/08/25 08:32:26;;;;;;;0.60;0.50;;;19.40;99.90;;;;;;5036062;28;20174;-63
2021/08/25 08:34:51;;;;;;;0.50;0.33;;;19.00;96.70;;;;;;5044676;28;20753;-62
2021/08/25 08:37:17;;;;;;;2.30;0.67;;;19.00;99.90;;;;;;5056831;28;20239;-62
2021/08/25 08:39:42;;;;;;;3.77;0.83;;;19.10;99.90;;;;;;5055314;28;20207;-62
2021/08/25 08:42:26;;;;;;;0.40;0.20;;;19.20;1.00;;;;;;5035930;28;20189;-62
2021/08/25 08:44:53;;;;;;;0.50;0.20;;;19.40;1.00;;;;;;5037158;28;20177;-62
2021/08/25 08:47:21;;;;;;;0.60;0.40;;;19.50;99.90;;;;;;5037238;28;20432;-62
2021/08/25 08:49:47;;;;;;;0.40;0.10;;;19.60;1.00;;;;;;5037780;28;20987;-67
2021/08/25 08:52:13;;;;;;;1.17;0.63;;;19.80;99.90;;;;;;5037972;28;20432;-68
2021/08/25 08:54:38;;;;;;;0.67;0.40;;;19.70;1.00;;;;;;5038275;28;20186;-67
2021/08/25 08:57:04;;;;;;;0.50;0.20;;;19.40;1.00;;;;;;5037952;28;20197;-68
2021/08/25 08:59:30;;;;;;;0.40;0.20;;;19.70;99.90;;;;;;5038861;28;20178;-62
2021/08/25 09:01:56;;;;;;;0.50;0.27;;;19.80;1.00;;;;;;5039986;28;20177;-67
2021/08/25 09:04:32;;;;;;;0.40;0.20;;;19.90;99.90;;;;;;5038239;28;20435;-64
2021/08/25 09:06:58;;;;;;;0.50;0.20;;;19.60;1.00;;;;;;5038810;28;20247;-64
2021/08/25 09:09:24;;;;;;;1.90;0.63;;;19.70;99.90;;;;;;5038728;28;20809;-64
2021/08/25 09:11:55;;;;;;;1.80;0.30;;;19.80;99.90;;;;;;5038508;28;20533;-64
2021/08/25 09:14:25;;;;;;;0.60;0.40;;;19.50;1.00;;;;;;5039625;28;20432;-64
2021/08/25 09:16:51;;;;;;;0.77;0.60;;;19.70;1.00;;;;;;5039836;28;20428;-64
2021/08/25 09:19:18;;;;;;;0.50;0.20;;;19.70;99.90;;;;;;5037285;28;20765;-64
2021/08/25 09:21:46;;;;;;;0.70;0.40;;;19.90;1.00;;;;;;5039558;28;20451;-64
2021/08/25 09:24:13;;;;;;;0.40;0.13;;;19.40;1.00;;;;;;5039647;28;20905;-63
2021/08/25 09:27:05;;;;;;;0.50;0.30;;;19.30;99.90;;;;;;5036461;28;20456;-65
2021/08/25 09:29:30;;;;;;;4.13;0.57;;;19.90;98.60;;;;;;5030953;28;20535;-66
2021/08/25 09:31:56;;;;;;;0.50;0.30;;;20.00;99.90;;;;;;5036515;28;20560;-66
2021/08/25 09:34:32;;;;;;;0.40;0.20;;;19.80;99.90;;;;;;5039589;28;20256;-67
2021/08/25 09:37:12;;;;;;;0.50;0.40;;;19.70;99.90;;;;;;5056128;28;20180;-67
2021/08/25 09:39:48;;;;;;;0.40;0.20;;;19.60;1.00;;;;;;5054869;28;20419;-67
2021/08/25 09:42:17;;;;;;;0.50;0.30;;;19.30;99.90;;;;;;5035082;28;20466;-67
2021/08/25 09:44:45;;;;;;;0.40;0.20;;;18.80;1.00;;;;;;5036103;28;20439;-66
2021/08/25 09:47:10;;;;;;;0.40;0.20;;;19.10;1.00;;;;;;5035911;28;20428;-66
2021/08/25 09:49:37;;;;;;;0.77;0.20;;;19.30;1.00;;;;;;5034409;28;20459;-64
2021/08/25 09:52:04;;;;;;;0.40;0.20;;;19.70;99.90;;;;;;5035434;28;20517;-64
2021/08/25 09:54:29;;;;;;;0.50;0.30;;;19.90;21.70;;;;;;5035375;28;20420;-64
2021/08/25 09:56:55;;;;;;;0.40;0.20;;;20.60;99.90;;;;;;5035271;28;20435;-65
2021/08/25 09:59:22;;;;;;;0.40;0.20;;;20.70;99.90;;;;;;5034911;28;20248;-65
2021/08/25 10:01:49;;;;;;;2.03;0.30;;;20.10;1.00;;;;;;5035339;28;20205;-65
2021/08/25 10:04:15;;;;;;;0.40;0.20;;;19.60;99.90;;;;;;5035099;28;20424;-65
2021/08/25 10:06:46;;;;;;;0.40;0.20;;;19.00;1.00;;;;;;5034857;28;20787;-65
2021/08/25 10:09:13;;;;;;;0.40;0.20;;;19.20;99.90;;;;;;5034750;28;20438;-65
2021/08/25 10:11:56;;;;;;;0.50;0.30;;;19.50;99.90;;;;;;5034762;28;20537;-65
2021/08/25 10:14:24;;;;;;;0.80;0.63;;;20.20;99.90;;;;;;5034917;28;20456;-66
2021/08/25 10:16:51;;;;;;;0.40;0.20;;;20.40;1.00;;;;;;5034816;28;20918;-65
2021/08/25 10:19:26;;;;;;;0.50;0.20;;;20.40;1.00;;;;;;5034722;28;20895;-65
2021/08/25 10:21:53;;;;;;;0.57;0.37;;;20.30;1.00;;;;;;5035077;28;20753;-65
2021/08/25 10:24:19;;;;;;;0.50;0.30;;;20.10;99.90;;;;;;5035730;28;20435;-66
2021/08/25 10:26:57;;;;;;;0.50;0.33;;;20.40;99.90;;;;;;5045175;28;20443;-63
2021/08/25 10:29:24;;;;;;;0.80;0.60;;;20.00;99.90;;;;;;5042208;28;20427;-63
2021/08/25 10:31:50;;;;;;;0.40;0.20;;;19.50;66.70;;;;;;5033785;28;20496;-63
2021/08/25 10:34:27;;;;;;;0.40;0.20;;;19.30;1.00;;;;;;5033930;28;20519;-64
2021/08/25 10:37:12;;;;;;;0.40;0.20;;;19.30;1.00;;;;;;5034617;28;20177;-65
2021/08/25 10:39:39;;;;;;;0.70;0.67;;;19.10;99.90;;;;;;5035894;28;20424;-65
2021/08/25 10:42:06;;;;;;;0.40;0.20;;;19.20;99.90;;;;;;5036110;28;20455;-65
2021/08/25 10:44:38;;;;;;;0.40;0.20;;;19.70;48.20;;;;;;5033822;28;20424;-62
2021/08/25 10:47:11;;;;;;;0.40;0.20;;;20.40;99.90;;;;;;5034232;28;20436;-62
2021/08/25 10:49:48;;;;;;;0.70;0.50;;;20.60;99.90;;;;;;5033955;28;20835;-62
2021/08/25 10:52:13;;;;;;;0.40;0.20;;;20.40;72.70;;;;;;5033006;28;20439;-61
2021/08/25 10:54:50;;;;;;;0.80;0.50;;;20.10;1.00;;;;;;5034410;28;20753;-60
2021/08/25 10:57:17;;;;;;;0.40;0.20;;;20.30;1.00;;;;;;5033740;28;20296;-61
2021/08/25 10:59:43;;;;;;;0.50;0.27;;;20.30;99.90;;;;;;5037946;28;20465;-62
2021/08/25 11:02:09;;;;;;;0.40;0.20;;;20.10;1.00;;;;;;5033865;28;20416;-61
2021/08/25 11:04:35;;;;;;;0.40;0.20;;;19.80;1.00;;;;;;5033756;28;20428;-65
2021/08/25 11:07:05;;;;;;;0.40;0.20;;;19.80;1.00;;;;;;5033885;28;20951;-64
2021/08/25 11:09:45;;;;;;;1.00;0.50;;;19.90;99.90;;;;;;5033630;28;20181;-64
2021/08/25 11:12:19;;;;;;;0.40;0.20;;;20.10;99.90;;;;;;5033001;28;20436;-63
2021/08/25 11:14:49;;;;;;;0.63;0.50;;;20.00;1.00;;;;;;5033637;28;20437;-65
2021/08/25 11:17:24;;;;;;;1.60;1.00;;;20.30;1.00;;;;;;5033977;28;20527;-65
2021/08/25 11:19:52;;;;;;;0.50;0.20;;;20.10;1.00;;;;;;5033096;28;20896;-65
2021/08/25 11:22:24;;;;;;;1.00;0.40;;;20.00;1.00;;;;;;5033954;28;20745;-63
2021/08/25 11:24:50;;;;;;;1.17;1.07;;;19.70;99.90;;;;;;5032407;28;20428;-65
2021/08/25 11:27:22;;;;;;;1.77;1.33;;;19.90;99.90;;;;;;5033390;28;20912;-67
2021/08/25 11:30:00;;;;;;;0.70;0.30;;;19.80;99.90;;;;;;5033424;28;20420;-67
2021/08/25 11:32:27;;;;;;;0.40;0.20;;;20.00;99.90;;;;;;5037410;28;20423;-67
2021/08/25 11:34:52;;;;;;;0.50;0.33;;;19.80;1.00;;;;;;5052779;28;20951;-67
2021/08/25 11:37:20;;;;;;;0.40;0.10;;;19.70;1.00;;;;;;5052996;28;20502;-66
2021/08/25 11:40:01;;;;;;;0.40;0.20;;;19.80;1.00;;;;;;5050768;28;20501;-66
2021/08/25 11:42:34;;;;;;;0.50;0.30;;;20.10;1.00;;;;;;5033365;28;20460;-65
2021/08/25 11:45:12;;;;;;;0.60;0.60;;;19.80;99.90;;;;;;5033127;28;20753;-67
2021/08/25 11:47:45;;;;;;;0.40;0.20;;;19.70;1.00;;;;;;5033569;28;20412;-65
2021/08/25 11:50:11;;;;;;;0.40;0.20;;;19.70;1.00;;;;;;5034797;28;20478;-65
2021/08/25 11:52:37;;;;;;;1.17;0.50;;;19.70;1.00;;;;;;5033767;28;20420;-68
2021/08/25 11:55:05;;;;;;;1.13;0.50;;;19.40;98.20;;;;;;5033583;28;20984;-68
2021/08/25 11:57:39;;;;;;;0.40;0.20;;;19.10;66.50;;;;;;5035602;28;20185;-67
2021/08/25 12:00:06;;;;;;;1.03;0.93;;;19.10;99.90;;;;;;5038371;28;20435;-66
2021/08/25 12:02:48;;;;;;;3.40;0.87;;;19.30;99.90;;;;;;5037577;28;20831;-66
2021/08/25 12:05:29;;;;;;;0.50;0.30;;;19.20;99.90;;;;;;5038249;28;20931;-67
2021/08/25 12:08:04;;;;;;;0.40;0.20;;;19.40;99.90;;;;;;5038854;28;20785;-66
2021/08/25 12:10:31;;;;;;;0.40;0.20;;;19.70;1.00;;;;;;5037814;28;20463;-66
2021/08/25 12:12:57;;;;;;;0.50;0.40;;;19.80;99.90;;;;;;5038004;28;20739;-67
2021/08/25 12:15:41;;;;;;;4.53;2.00;;;20.10;99.90;;;;;;5037878;28;20906;-66
2021/08/25 12:18:07;;;;;;;0.40;0.20;;;20.10;1.00;;;;;;5036877;28;20173;-66
2021/08/25 12:20:37;;;;;;;0.60;0.30;;;19.90;99.90;;;;;;5037240;28;20431;-66
2021/08/25 12:23:07;;;;;;;0.40;0.10;;;19.90;99.90;;;;;;5037605;28;20288;-66
2021/08/25 12:25:41;;;;;;;0.40;0.10;;;19.90;99.90;;;;;;5038138;28;20511;-66
2021/08/25 12:28:11;;;;;;;0.40;0.20;;;19.90;99.90;;;;;;5037085;28;20853;-66
2021/08/25 12:30:41;;;;;;;0.70;0.40;;;20.00;99.90;;;;;;5037489;28;20460;-67
2021/08/25 12:33:10;;;;;;;0.50;0.30;;;19.90;1.00;;;;;;5046249;28;20427;-67
2021/08/25 12:35:37;;;;;;;0.60;0.50;;;19.80;1.00;;;;;;5057369;28;20529;-67
2021/08/25 12:38:04;;;;;;;0.40;0.20;;;19.50;1.00;;;;;;5056943;28;20949;-67
2021/08/25 12:40:31;;;;;;;0.60;0.57;;;19.60;1.00;;;;;;5048274;28;20913;-67
2021/08/25 12:42:58;;;;;;;0.80;0.80;;;19.50;41.60;;;;;;5036507;28;20428;-67
2021/08/25 12:45:25;;;;;;;0.50;0.30;;;19.50;1.00;;;;;;5035477;28;20530;-66
2021/08/25 12:47:53;;;;;;;0.40;0.20;;;19.60;99.90;;;;;;5035473;28;20495;-66
2021/08/25 12:50:22;;;;;;;0.73;0.40;;;19.80;1.00;;;;;;5036341;28;20463;-67